sensor_id;sensor_type;location;lat;lon;timestamp;P1;durP1;ratioP1;P2;durP2;ratioP2
69910;SDS011;63555;49.920;17.868;2023-09-19T00:04:23;21.13;;;12.83;;
69910;SDS011;63555;49.920;17.868;2023-09-19T00:09:28;22.10;;;13.82;;
69910;SDS011;63555;49.920;17.868;2023-09-19T00:14:30;21.80;;;13.37;;
69910;SDS011;63555;49.920;17.868;2023-09-19T00:19:34;22.67;;;13.57;;
69910;SDS011;63555;49.920;17.868;2023-09-19T00:24:35;21.85;;;13.27;;
69910;SDS011;63555;49.920;17.868;2023-09-19T00:29:35;24.00;;;13.48;;
69910;SDS011;63555;49.920;17.868;2023-09-19T00:34:35;21.38;;;13.43;;
69910;SDS011;63555;49.920;17.868;2023-09-19T00:39:36;20.35;;;13.55;;
69910;SDS011;63555;49.920;17.868;2023-09-19T00:44:37;22.80;;;14.10;;
69910;SDS011;63555;49.920;17.868;2023-09-19T00:49:38;24.00;;;13.77;;
69910;SDS011;63555;49.920;17.868;2023-09-19T00:54:38;21.13;;;14.00;;
69910;SDS011;63555;49.920;17.868;2023-09-19T00:59:39;20.90;;;14.07;;
69910;SDS011;63555;49.920;17.868;2023-09-19T01:04:40;21.43;;;13.53;;
69910;SDS011;63555;49.920;17.868;2023-09-19T01:09:41;22.33;;;13.40;;
69910;SDS011;63555;49.920;17.868;2023-09-19T01:14:44;20.98;;;12.80;;
69910;SDS011;63555;49.920;17.868;2023-09-19T01:26:07;21.53;;;12.47;;
69910;SDS011;63555;49.920;17.868;2023-09-19T01:31:28;17.83;;;11.52;;
69910;SDS011;63555;49.920;17.868;2023-09-19T01:36:36;17.50;;;11.70;;
69910;SDS011;63555;49.920;17.868;2023-09-19T01:47:28;18.38;;;11.43;;
69910;SDS011;63555;49.920;17.868;2023-09-19T01:52:38;22.13;;;12.03;;
69910;SDS011;63555;49.920;17.868;2023-09-19T01:57:52;24.00;;;12.52;;
69910;SDS011;63555;49.920;17.868;2023-09-19T02:03:01;21.23;;;12.60;;
69910;SDS011;63555;49.920;17.868;2023-09-19T02:08:03;18.92;;;12.35;;
69910;SDS011;63555;49.920;17.868;2023-09-19T02:13:03;20.48;;;12.32;;
69910;SDS011;63555;49.920;17.868;2023-09-19T02:18:04;19.10;;;11.83;;
69910;SDS011;63555;49.920;17.868;2023-09-19T02:23:06;18.20;;;10.50;;
69910;SDS011;63555;49.920;17.868;2023-09-19T02:28:07;15.98;;;9.73;;
69910;SDS011;63555;49.920;17.868;2023-09-19T02:33:09;16.58;;;10.80;;
69910;SDS011;63555;49.920;17.868;2023-09-19T02:38:09;17.73;;;11.50;;
69910;SDS011;63555;49.920;17.868;2023-09-19T02:43:12;20.15;;;10.85;;
69910;SDS011;63555;49.920;17.868;2023-09-19T02:48:12;25.17;;;14.13;;
69910;SDS011;63555;49.920;17.868;2023-09-19T02:53:12;24.20;;;13.13;;
69910;SDS011;63555;49.920;17.868;2023-09-19T02:58:13;21.55;;;11.20;;
69910;SDS011;63555;49.920;17.868;2023-09-19T03:03:15;24.13;;;12.60;;
69910;SDS011;63555;49.920;17.868;2023-09-19T03:08:16;17.83;;;11.77;;
69910;SDS011;63555;49.920;17.868;2023-09-19T03:13:17;19.43;;;11.30;;
69910;SDS011;63555;49.920;17.868;2023-09-19T03:18:17;21.23;;;12.23;;
69910;SDS011;63555;49.920;17.868;2023-09-19T03:23:19;18.92;;;11.70;;
69910;SDS011;63555;49.920;17.868;2023-09-19T03:28:19;19.90;;;12.47;;
69910;SDS011;63555;49.920;17.868;2023-09-19T03:33:21;19.65;;;12.98;;
69910;SDS011;63555;49.920;17.868;2023-09-19T03:38:22;18.50;;;11.95;;
69910;SDS011;63555;49.920;17.868;2023-09-19T03:43:22;21.63;;;12.15;;
69910;SDS011;63555;49.920;17.868;2023-09-19T03:48:23;19.40;;;12.73;;
69910;SDS011;63555;49.920;17.868;2023-09-19T03:53:23;20.50;;;12.90;;
69910;SDS011;63555;49.920;17.868;2023-09-19T03:58:23;26.20;;;14.40;;
69910;SDS011;63555;49.920;17.868;2023-09-19T04:09:22;46.03;;;19.02;;
69910;SDS011;63555;49.920;17.868;2023-09-19T04:14:23;47.63;;;19.90;;
69910;SDS011;63555;49.920;17.868;2023-09-19T04:19:24;47.53;;;20.08;;
69910;SDS011;63555;49.920;17.868;2023-09-19T04:24:24;61.28;;;21.88;;
69910;SDS011;63555;49.920;17.868;2023-09-19T04:29:25;116.17;;;24.63;;
69910;SDS011;63555;49.920;17.868;2023-09-19T04:34:26;41.50;;;19.97;;
69910;SDS011;63555;49.920;17.868;2023-09-19T04:39:27;64.93;;;22.45;;
69910;SDS011;63555;49.920;17.868;2023-09-19T04:44:28;71.67;;;23.53;;
69910;SDS011;63555;49.920;17.868;2023-09-19T04:49:28;44.53;;;21.87;;
69910;SDS011;63555;49.920;17.868;2023-09-19T04:54:29;45.80;;;22.70;;
69910;SDS011;63555;49.920;17.868;2023-09-19T04:59:29;43.53;;;22.00;;
69910;SDS011;63555;49.920;17.868;2023-09-19T05:04:31;53.00;;;24.65;;
69910;SDS011;63555;49.920;17.868;2023-09-19T05:09:32;41.17;;;21.53;;
69910;SDS011;63555;49.920;17.868;2023-09-19T05:14:34;47.30;;;23.73;;
69910;SDS011;63555;49.920;17.868;2023-09-19T05:19:35;55.83;;;22.63;;
69910;SDS011;63555;49.920;17.868;2023-09-19T05:24:36;50.20;;;23.37;;
69910;SDS011;63555;49.920;17.868;2023-09-19T05:29:37;56.33;;;25.48;;
69910;SDS011;63555;49.920;17.868;2023-09-19T05:34:38;60.00;;;24.13;;
69910;SDS011;63555;49.920;17.868;2023-09-19T05:39:38;35.63;;;18.17;;
69910;SDS011;63555;49.920;17.868;2023-09-19T05:44:39;14.90;;;8.20;;
69910;SDS011;63555;49.920;17.868;2023-09-19T05:49:39;8.20;;;3.87;;
69910;SDS011;63555;49.920;17.868;2023-09-19T05:54:40;6.10;;;2.10;;
69910;SDS011;63555;49.920;17.868;2023-09-19T05:59:42;6.77;;;1.80;;
69910;SDS011;63555;49.920;17.868;2023-09-19T06:04:43;4.15;;;1.92;;
69910;SDS011;63555;49.920;17.868;2023-09-19T06:09:44;3.37;;;1.80;;
69910;SDS011;63555;49.920;17.868;2023-09-19T06:14:44;4.60;;;1.90;;
69910;SDS011;63555;49.920;17.868;2023-09-19T06:19:45;5.00;;;1.97;;
69910;SDS011;63555;49.920;17.868;2023-09-19T06:24:47;5.03;;;1.88;;
69910;SDS011;63555;49.920;17.868;2023-09-19T06:29:48;4.32;;;2.25;;
69910;SDS011;63555;49.920;17.868;2023-09-19T06:34:51;3.67;;;2.33;;
69910;SDS011;63555;49.920;17.868;2023-09-19T06:39:54;4.70;;;2.00;;
69910;SDS011;63555;49.920;17.868;2023-09-19T06:44:56;3.80;;;2.03;;
69910;SDS011;63555;49.920;17.868;2023-09-19T06:49:56;3.67;;;2.03;;
69910;SDS011;63555;49.920;17.868;2023-09-19T06:54:57;4.10;;;2.40;;
69910;SDS011;63555;49.920;17.868;2023-09-19T06:59:57;5.70;;;2.33;;
69910;SDS011;63555;49.920;17.868;2023-09-19T07:04:57;3.47;;;2.27;;
69910;SDS011;63555;49.920;17.868;2023-09-19T07:09:58;4.87;;;2.40;;
69910;SDS011;63555;49.920;17.868;2023-09-19T07:14:59;4.93;;;2.37;;
69910;SDS011;63555;49.920;17.868;2023-09-19T07:20:00;4.47;;;2.13;;
69910;SDS011;63555;49.920;17.868;2023-09-19T07:25:00;4.20;;;2.30;;
69910;SDS011;63555;49.920;17.868;2023-09-19T07:30:00;5.00;;;2.70;;
69910;SDS011;63555;49.920;17.868;2023-09-19T07:35:01;5.23;;;2.47;;
69910;SDS011;63555;49.920;17.868;2023-09-19T07:40:02;4.40;;;2.30;;
69910;SDS011;63555;49.920;17.868;2023-09-19T07:45:07;4.65;;;2.33;;
69910;SDS011;63555;49.920;17.868;2023-09-19T07:50:09;4.43;;;2.63;;
69910;SDS011;63555;49.920;17.868;2023-09-19T07:55:09;4.25;;;2.30;;
69910;SDS011;63555;49.920;17.868;2023-09-19T08:00:11;3.20;;;2.20;;
69910;SDS011;63555;49.920;17.868;2023-09-19T08:05:12;6.40;;;2.47;;
69910;SDS011;63555;49.920;17.868;2023-09-19T08:10:16;5.03;;;2.90;;
69910;SDS011;63555;49.920;17.868;2023-09-19T08:15:19;5.25;;;2.60;;
69910;SDS011;63555;49.920;17.868;2023-09-19T08:20:20;6.20;;;2.63;;
69910;SDS011;63555;49.920;17.868;2023-09-19T08:25:21;4.23;;;2.63;;
69910;SDS011;63555;49.920;17.868;2023-09-19T08:30:23;3.67;;;2.53;;
69910;SDS011;63555;49.920;17.868;2023-09-19T08:35:24;7.03;;;3.30;;
69910;SDS011;63555;49.920;17.868;2023-09-19T08:40:24;6.57;;;3.10;;
69910;SDS011;63555;49.920;17.868;2023-09-19T08:45:28;6.20;;;3.23;;
69910;SDS011;63555;49.920;17.868;2023-09-19T08:50:31;6.13;;;2.85;;
69910;SDS011;63555;49.920;17.868;2023-09-19T08:55:33;4.85;;;3.00;;
69910;SDS011;63555;49.920;17.868;2023-09-19T09:00:34;5.97;;;2.40;;
69910;SDS011;63555;49.920;17.868;2023-09-19T09:05:35;3.70;;;2.50;;
69910;SDS011;63555;49.920;17.868;2023-09-19T09:10:37;3.88;;;2.20;;
69910;SDS011;63555;49.920;17.868;2023-09-19T09:15:40;4.95;;;2.47;;
69910;SDS011;63555;49.920;17.868;2023-09-19T09:20:42;4.77;;;2.10;;
69910;SDS011;63555;49.920;17.868;2023-09-19T09:25:54;9.25;;;2.80;;
69910;SDS011;63555;49.920;17.868;2023-09-19T09:30:57;4.43;;;2.57;;
69910;SDS011;63555;49.920;17.868;2023-09-19T09:36:18;6.10;;;2.25;;
69910;SDS011;63555;49.920;17.868;2023-09-19T09:41:38;3.42;;;1.90;;
69910;SDS011;63555;49.920;17.868;2023-09-19T09:46:42;4.37;;;2.10;;
69910;SDS011;63555;49.920;17.868;2023-09-19T09:51:59;3.55;;;1.85;;
69910;SDS011;63555;49.920;17.868;2023-09-19T09:57:24;3.10;;;1.90;;
69910;SDS011;63555;49.920;17.868;2023-09-19T10:02:26;3.88;;;1.65;;
69910;SDS011;63555;49.920;17.868;2023-09-19T10:07:36;2.75;;;1.75;;
69910;SDS011;63555;49.920;17.868;2023-09-19T10:12:43;4.53;;;1.73;;
69910;SDS011;63555;49.920;17.868;2023-09-19T10:17:46;3.70;;;1.60;;
69910;SDS011;63555;49.920;17.868;2023-09-19T10:22:48;4.87;;;2.10;;
69910;SDS011;63555;49.920;17.868;2023-09-19T10:27:57;4.35;;;1.70;;
69910;SDS011;63555;49.920;17.868;2023-09-19T10:33:04;4.72;;;1.90;;
69910;SDS011;63555;49.920;17.868;2023-09-19T10:38:09;4.50;;;1.53;;
69910;SDS011;63555;49.920;17.868;2023-09-19T10:43:18;3.38;;;1.70;;
69910;SDS011;63555;49.920;17.868;2023-09-19T10:48:20;4.90;;;1.90;;
69910;SDS011;63555;49.920;17.868;2023-09-19T10:53:25;5.00;;;1.73;;
69910;SDS011;63555;49.920;17.868;2023-09-19T10:58:30;12.05;;;6.13;;
69910;SDS011;63555;49.920;17.868;2023-09-19T11:03:37;4.17;;;2.10;;
69910;SDS011;63555;49.920;17.868;2023-09-19T11:08:56;2.78;;;1.70;;
69910;SDS011;63555;49.920;17.868;2023-09-19T11:19:33;4.15;;;1.90;;
69910;SDS011;63555;49.920;17.868;2023-09-19T11:30:50;4.60;;;1.80;;
69910;SDS011;63555;49.920;17.868;2023-09-19T11:36:10;3.45;;;1.80;;
69910;SDS011;63555;49.920;17.868;2023-09-19T11:46:28;3.60;;;1.77;;
69910;SDS011;63555;49.920;17.868;2023-09-19T11:51:36;3.33;;;1.85;;
69910;SDS011;63555;49.920;17.868;2023-09-19T11:56:44;4.93;;;1.83;;
69910;SDS011;63555;49.920;17.868;2023-09-19T12:01:51;3.85;;;1.80;;
69910;SDS011;63555;49.920;17.868;2023-09-19T12:06:59;3.87;;;1.80;;
69910;SDS011;63555;49.920;17.868;2023-09-19T12:11:59;2.70;;;1.50;;
69910;SDS011;63555;49.920;17.868;2023-09-19T12:17:00;2.97;;;1.70;;
69910;SDS011;63555;49.920;17.868;2023-09-19T12:22:03;5.03;;;2.65;;
69910;SDS011;63555;49.920;17.868;2023-09-19T12:27:09;3.35;;;1.90;;
69910;SDS011;63555;49.920;17.868;2023-09-19T12:32:11;5.87;;;3.50;;
69910;SDS011;63555;49.920;17.868;2023-09-19T12:37:13;3.33;;;1.80;;
69910;SDS011;63555;49.920;17.868;2023-09-19T12:42:44;4.13;;;2.07;;
69910;SDS011;63555;49.920;17.868;2023-09-19T12:53:27;3.53;;;1.75;;
69910;SDS011;63555;49.920;17.868;2023-09-19T12:58:31;3.57;;;1.90;;
69910;SDS011;63555;49.920;17.868;2023-09-19T13:03:32;5.60;;;2.40;;
69910;SDS011;63555;49.920;17.868;2023-09-19T13:08:35;4.10;;;2.07;;
69910;SDS011;63555;49.920;17.868;2023-09-19T13:13:50;4.32;;;1.75;;
69910;SDS011;63555;49.920;17.868;2023-09-19T13:19:10;4.63;;;1.42;;
69910;SDS011;63555;49.920;17.868;2023-09-19T13:24:20;3.97;;;1.70;;
69910;SDS011;63555;49.920;17.868;2023-09-19T13:29:23;4.50;;;1.70;;
69910;SDS011;63555;49.920;17.868;2023-09-19T13:34:23;5.23;;;1.90;;
69910;SDS011;63555;49.920;17.868;2023-09-19T13:39:24;2.35;;;1.60;;
69910;SDS011;63555;49.920;17.868;2023-09-19T13:44:25;5.77;;;1.90;;
69910;SDS011;63555;49.920;17.868;2023-09-19T13:49:26;4.17;;;2.20;;
69910;SDS011;63555;49.920;17.868;2023-09-19T13:54:27;2.70;;;1.50;;
69910;SDS011;63555;49.920;17.868;2023-09-19T13:59:27;3.17;;;1.67;;
69910;SDS011;63555;49.920;17.868;2023-09-19T14:04:28;3.17;;;1.55;;
69910;SDS011;63555;49.920;17.868;2023-09-19T14:09:30;2.87;;;1.50;;
69910;SDS011;63555;49.920;17.868;2023-09-19T14:14:30;2.47;;;1.60;;
69910;SDS011;63555;49.920;17.868;2023-09-19T14:19:31;3.07;;;1.40;;
69910;SDS011;63555;49.920;17.868;2023-09-19T14:24:32;4.45;;;1.80;;
69910;SDS011;63555;49.920;17.868;2023-09-19T14:29:32;2.50;;;1.40;;
69910;SDS011;63555;49.920;17.868;2023-09-19T14:34:33;2.80;;;1.67;;
69910;SDS011;63555;49.920;17.868;2023-09-19T14:39:34;7.13;;;1.70;;
69910;SDS011;63555;49.920;17.868;2023-09-19T14:44:34;3.23;;;1.50;;
69910;SDS011;63555;49.920;17.868;2023-09-19T14:49:35;3.00;;;1.60;;
69910;SDS011;63555;49.920;17.868;2023-09-19T14:54:38;3.58;;;1.52;;
69910;SDS011;63555;49.920;17.868;2023-09-19T14:59:41;4.93;;;1.55;;
69910;SDS011;63555;49.920;17.868;2023-09-19T15:04:41;3.05;;;1.50;;
69910;SDS011;63555;49.920;17.868;2023-09-19T15:09:44;6.90;;;1.70;;
69910;SDS011;63555;49.920;17.868;2023-09-19T15:14:45;4.40;;;1.50;;
69910;SDS011;63555;49.920;17.868;2023-09-19T15:19:46;2.93;;;1.27;;
69910;SDS011;63555;49.920;17.868;2023-09-19T15:24:46;3.33;;;1.30;;
69910;SDS011;63555;49.920;17.868;2023-09-19T15:29:47;4.13;;;1.57;;
69910;SDS011;63555;49.920;17.868;2023-09-19T15:34:47;4.57;;;1.60;;
69910;SDS011;63555;49.920;17.868;2023-09-19T15:39:47;4.23;;;1.50;;
69910;SDS011;63555;49.920;17.868;2023-09-19T15:44:48;4.00;;;1.52;;
69910;SDS011;63555;49.920;17.868;2023-09-19T15:49:51;3.45;;;2.05;;
69910;SDS011;63555;49.920;17.868;2023-09-19T15:54:52;3.95;;;1.80;;
69910;SDS011;63555;49.920;17.868;2023-09-19T15:59:52;6.85;;;3.10;;
69910;SDS011;63555;49.920;17.868;2023-09-19T16:04:54;4.03;;;1.65;;
69910;SDS011;63555;49.920;17.868;2023-09-19T16:09:55;5.05;;;1.70;;
69910;SDS011;63555;49.920;17.868;2023-09-19T16:14:56;6.00;;;2.00;;
69910;SDS011;63555;49.920;17.868;2023-09-19T16:19:57;4.47;;;2.10;;
69910;SDS011;63555;49.920;17.868;2023-09-19T16:24:57;3.80;;;2.30;;
69910;SDS011;63555;49.920;17.868;2023-09-19T16:29:57;5.50;;;2.43;;
69910;SDS011;63555;49.920;17.868;2023-09-19T16:34:58;5.33;;;2.70;;
69910;SDS011;63555;49.920;17.868;2023-09-19T16:39:58;4.73;;;2.40;;
69910;SDS011;63555;49.920;17.868;2023-09-19T16:44:59;4.17;;;2.40;;
69910;SDS011;63555;49.920;17.868;2023-09-19T16:50:00;6.13;;;2.53;;
69910;SDS011;63555;49.920;17.868;2023-09-19T16:55:00;7.77;;;3.90;;
69910;SDS011;63555;49.920;17.868;2023-09-19T17:00:01;6.45;;;3.70;;
69910;SDS011;63555;49.920;17.868;2023-09-19T17:05:03;10.60;;;4.20;;
69910;SDS011;63555;49.920;17.868;2023-09-19T17:10:04;10.32;;;3.78;;
69910;SDS011;63555;49.920;17.868;2023-09-19T17:15:06;5.30;;;2.70;;
69910;SDS011;63555;49.920;17.868;2023-09-19T17:20:07;5.10;;;2.90;;
69910;SDS011;63555;49.920;17.868;2023-09-19T17:25:07;5.53;;;2.77;;
69910;SDS011;63555;49.920;17.868;2023-09-19T17:30:09;5.57;;;3.07;;
69910;SDS011;63555;49.920;17.868;2023-09-19T17:35:16;6.53;;;2.85;;
69910;SDS011;63555;49.920;17.868;2023-09-19T17:40:18;5.95;;;2.90;;
69910;SDS011;63555;49.920;17.868;2023-09-19T17:45:18;8.50;;;2.80;;
69910;SDS011;63555;49.920;17.868;2023-09-19T17:50:18;8.10;;;3.10;;
69910;SDS011;63555;49.920;17.868;2023-09-19T17:55:19;7.77;;;2.83;;
69910;SDS011;63555;49.920;17.868;2023-09-19T18:00:19;6.20;;;3.50;;
69910;SDS011;63555;49.920;17.868;2023-09-19T18:05:20;5.40;;;3.50;;
69910;SDS011;63555;49.920;17.868;2023-09-19T18:10:21;6.15;;;3.38;;
69910;SDS011;63555;49.920;17.868;2023-09-19T18:15:22;6.73;;;3.53;;
69910;SDS011;63555;49.920;17.868;2023-09-19T18:20:24;7.50;;;3.78;;
69910;SDS011;63555;49.920;17.868;2023-09-19T18:25:25;7.10;;;3.77;;
69910;SDS011;63555;49.920;17.868;2023-09-19T18:30:25;6.97;;;3.30;;
69910;SDS011;63555;49.920;17.868;2023-09-19T18:35:26;8.57;;;3.53;;
69910;SDS011;63555;49.920;17.868;2023-09-19T18:40:29;9.53;;;3.50;;
69910;SDS011;63555;49.920;17.868;2023-09-19T18:45:30;5.93;;;3.80;;
69910;SDS011;63555;49.920;17.868;2023-09-19T18:50:31;21.83;;;4.22;;
69910;SDS011;63555;49.920;17.868;2023-09-19T18:55:31;8.97;;;3.60;;
69910;SDS011;63555;49.920;17.868;2023-09-19T19:00:32;9.33;;;4.30;;
69910;SDS011;63555;49.920;17.868;2023-09-19T19:05:32;7.17;;;3.80;;
69910;SDS011;63555;49.920;17.868;2023-09-19T19:10:38;9.63;;;3.30;;
69910;SDS011;63555;49.920;17.868;2023-09-19T19:15:38;5.75;;;3.60;;
69910;SDS011;63555;49.920;17.868;2023-09-19T19:20:39;9.23;;;3.50;;
69910;SDS011;63555;49.920;17.868;2023-09-19T19:25:47;7.22;;;4.28;;
69910;SDS011;63555;49.920;17.868;2023-09-19T19:30:47;9.07;;;3.65;;
69910;SDS011;63555;49.920;17.868;2023-09-19T19:35:48;5.80;;;3.80;;
69910;SDS011;63555;49.920;17.868;2023-09-19T19:40:56;9.95;;;4.20;;
69910;SDS011;63555;49.920;17.868;2023-09-19T19:45:59;7.30;;;4.00;;
69910;SDS011;63555;49.920;17.868;2023-09-19T19:51:05;7.50;;;4.38;;
69910;SDS011;63555;49.920;17.868;2023-09-19T19:56:07;6.43;;;3.58;;
69910;SDS011;63555;49.920;17.868;2023-09-19T20:01:07;6.60;;;3.42;;
69910;SDS011;63555;49.920;17.868;2023-09-19T20:06:10;9.43;;;3.90;;
69910;SDS011;63555;49.920;17.868;2023-09-19T20:11:10;7.83;;;3.90;;
69910;SDS011;63555;49.920;17.868;2023-09-19T20:16:11;6.10;;;3.53;;
69910;SDS011;63555;49.920;17.868;2023-09-19T20:21:12;6.43;;;3.70;;
69910;SDS011;63555;49.920;17.868;2023-09-19T20:26:16;5.05;;;3.50;;
69910;SDS011;63555;49.920;17.868;2023-09-19T20:31:16;5.67;;;3.87;;
69910;SDS011;63555;49.920;17.868;2023-09-19T20:36:18;6.00;;;3.80;;
69910;SDS011;63555;49.920;17.868;2023-09-19T20:41:18;9.57;;;3.87;;
69910;SDS011;63555;49.920;17.868;2023-09-19T20:46:18;7.23;;;3.97;;
69910;SDS011;63555;49.920;17.868;2023-09-19T20:51:19;8.00;;;3.67;;
69910;SDS011;63555;49.920;17.868;2023-09-19T20:56:25;6.80;;;3.55;;
69910;SDS011;63555;49.920;17.868;2023-09-19T21:01:25;7.93;;;4.17;;
69910;SDS011;63555;49.920;17.868;2023-09-19T21:06:26;7.90;;;3.37;;
69910;SDS011;63555;49.920;17.868;2023-09-19T21:11:26;10.13;;;3.37;;
69910;SDS011;63555;49.920;17.868;2023-09-19T21:16:28;5.68;;;3.25;;
69910;SDS011;63555;49.920;17.868;2023-09-19T21:21:28;6.83;;;3.40;;
69910;SDS011;63555;49.920;17.868;2023-09-19T21:26:31;7.97;;;3.37;;
69910;SDS011;63555;49.920;17.868;2023-09-19T21:31:31;6.63;;;3.27;;
69910;SDS011;63555;49.920;17.868;2023-09-19T21:36:33;4.90;;;3.13;;
69910;SDS011;63555;49.920;17.868;2023-09-19T21:41:33;7.80;;;3.33;;
69910;SDS011;63555;49.920;17.868;2023-09-19T21:46:34;8.33;;;3.03;;
69910;SDS011;63555;49.920;17.868;2023-09-19T21:51:35;5.22;;;3.05;;
69910;SDS011;63555;49.920;17.868;2023-09-19T21:56:36;9.23;;;2.90;;
69910;SDS011;63555;49.920;17.868;2023-09-19T22:01:37;5.33;;;2.93;;
69910;SDS011;63555;49.920;17.868;2023-09-19T22:06:39;4.40;;;2.53;;
69910;SDS011;63555;49.920;17.868;2023-09-19T22:11:39;5.00;;;2.80;;
69910;SDS011;63555;49.920;17.868;2023-09-19T22:16:40;6.03;;;2.93;;
69910;SDS011;63555;49.920;17.868;2023-09-19T22:21:42;5.47;;;2.60;;
69910;SDS011;63555;49.920;17.868;2023-09-19T22:26:46;5.23;;;2.90;;
69910;SDS011;63555;49.920;17.868;2023-09-19T22:31:47;6.57;;;2.85;;
69910;SDS011;63555;49.920;17.868;2023-09-19T22:36:48;17.80;;;3.33;;
69910;SDS011;63555;49.920;17.868;2023-09-19T22:41:54;10.93;;;3.42;;
69910;SDS011;63555;49.920;17.868;2023-09-19T22:46:59;4.90;;;2.63;;
69910;SDS011;63555;49.920;17.868;2023-09-19T22:51:59;5.20;;;2.60;;
69910;SDS011;63555;49.920;17.868;2023-09-19T22:57:00;9.37;;;2.93;;
69910;SDS011;63555;49.920;17.868;2023-09-19T23:02:02;7.47;;;2.92;;
69910;SDS011;63555;49.920;17.868;2023-09-19T23:07:05;5.70;;;2.83;;
69910;SDS011;63555;49.920;17.868;2023-09-19T23:12:05;5.18;;;3.00;;
69910;SDS011;63555;49.920;17.868;2023-09-19T23:17:10;7.60;;;3.30;;
69910;SDS011;63555;49.920;17.868;2023-09-19T23:22:15;5.22;;;2.97;;
69910;SDS011;63555;49.920;17.868;2023-09-19T23:27:18;8.90;;;3.60;;
69910;SDS011;63555;49.920;17.868;2023-09-19T23:32:24;15.00;;;3.17;;
69910;SDS011;63555;49.920;17.868;2023-09-19T23:37:25;6.10;;;3.00;;
69910;SDS011;63555;49.920;17.868;2023-09-19T23:42:25;8.67;;;3.93;;
69910;SDS011;63555;49.920;17.868;2023-09-19T23:47:27;5.72;;;2.95;;
69910;SDS011;63555;49.920;17.868;2023-09-19T23:52:28;4.37;;;2.47;;
69910;SDS011;63555;49.920;17.868;2023-09-19T23:57:28;4.33;;;2.50;;
